Terminal Aerodrome Forecast
Issued by NWS

Home | Current Version | Previous Version | Text Only | Print | Product List | Glossary On
Versions: 1 2 3 4 5 6 7 8 9 10 11 12 13 14 15 16 17 18 19 20 21 22 23 24 25 26 27 28 29 30 31 32 33 34
000
FTUS45 KGJT 052028 AAA
TAFMTJ
TAF AMD
KMTJ 052028Z 0520/0618 28006KT P6SM -SHRA SCT025 BKN050 BKN080
      TEMPO 0520/0524 VRB12G22KT -TSRA BKN025 BKN050CB
     FM060000 17005KT P6SM VCSH SCT060 BKN090
      TEMPO 0601/0604 -TSRA BKN080CB
     FM061000 VRB06KT P6SM -RA OVC030=

USA.gov is the U.S. government's official web portal to all federal, state and local government web resources and services.